Time;durP1;ratioP1;P1;durP2;ratioP2;P2;SDS_P1;SDS_P2;PMS_P1;PMS_P2;Temp;Humidity;BMP_temperature;BMP_pressure;BME280_temperature;BME280_humidity;BME280_pressure;Samples;Min_cycle;Max_cycle;Signal;HPM_P1;HPM_P2
2023/03/14 00:01:48;;;;;;;2.03;0.30;;;;;;;8.22;100.00;94795.34;5039463;28;20025;-88
2023/03/14 00:04:14;;;;;;;1.00;0.60;;;;;;;8.23;100.00;94799.59;5049715;28;20094;-88
2023/03/14 00:06:49;;;;;;;0.90;0.37;;;;;;;8.18;100.00;94819.44;5030556;28;20037;-89
2023/03/14 00:09:17;;;;;;;1.67;0.50;;;;;;;8.17;100.00;94800.31;5033886;28;20482;-89
2023/03/14 00:11:42;;;;;;;0.70;0.40;;;;;;;8.12;100.00;94778.28;5033852;28;20039;-89
2023/03/14 00:14:08;;;;;;;1.23;0.43;;;;;;;8.25;100.00;94747.84;5032317;28;20033;-89
2023/03/14 00:16:34;;;;;;;1.90;0.50;;;;;;;8.19;100.00;94759.06;5041797;28;20072;-89
2023/03/14 00:19:00;;;;;;;0.80;0.43;;;;;;;8.18;100.00;94727.78;5038841;28;20032;-88
2023/03/14 00:21:26;;;;;;;1.63;0.50;;;;;;;8.18;100.00;94730.41;5033599;28;20056;-89
2023/03/14 00:23:52;;;;;;;2.53;0.63;;;;;;;8.18;100.00;94723.38;5029147;28;20029;-88
2023/03/14 00:26:28;;;;;;;1.00;0.30;;;;;;;8.20;100.00;94721.38;5034736;28;20036;-89
2023/03/14 00:28:54;;;;;;;1.87;0.30;;;;;;;8.25;100.00;94719.06;5035210;28;20040;-89
2023/03/14 00:31:47;;;;;;;1.30;0.57;;;;;;;8.30;100.00;94717.69;5033343;28;20033;-89
2023/03/14 00:34:13;;;;;;;0.20;0.20;;;;;;;8.34;100.00;94727.59;5039812;28;20076;-88
2023/03/14 00:36:38;;;;;;;0.97;0.30;;;;;;;8.37;100.00;94698.44;5041999;28;20044;-88
2023/03/14 00:39:05;;;;;;;0.70;0.30;;;;;;;8.39;100.00;94672.91;5041446;28;20040;-88
2023/03/14 00:41:35;;;;;;;1.27;0.40;;;;;;;8.45;100.00;94659.06;5050009;28;20032;-89
2023/03/14 00:44:01;;;;;;;0.97;0.40;;;;;;;8.43;100.00;94632.25;5033191;28;20601;-88
2023/03/14 00:46:27;;;;;;;1.00;0.40;;;;;;;8.47;100.00;94654.44;5049972;28;20556;-89
2023/03/14 00:48:53;;;;;;;0.40;0.20;;;;;;;8.53;100.00;94633.75;5032903;28;20104;-87
2023/03/14 00:51:21;;;;;;;1.37;0.30;;;;;;;8.45;100.00;94617.16;5032838;28;20125;-87
2023/03/14 00:53:47;;;;;;;1.23;0.30;;;;;;;8.44;100.00;94564.94;5025511;28;20044;-88
2023/03/14 00:56:47;;;;;;;0.63;0.20;;;;;;;8.38;100.00;94536.88;5038300;28;20029;-92
2023/03/14 00:59:13;;;;;;;1.60;0.10;;;;;;;8.39;100.00;94590.91;5058854;28;20036;-93
2023/03/14 01:05:25;;;;;;;0.13;0.10;;;;;;;8.37;100.00;94598.91;5034495;28;20040;-93
2023/03/14 01:07:51;;;;;;;2.00;1.03;;;;;;;8.44;100.00;94619.94;5016729;28;20029;-94
2023/03/14 01:10:17;;;;;;;1.40;0.27;;;;;;;8.42;100.00;94622.78;5016683;28;20033;-94
2023/03/14 01:12:42;;;;;;;0.37;0.10;;;;;;;8.44;100.00;94643.53;5039365;28;20044;-92
2023/03/14 01:15:09;;;;;;;0.67;0.10;;;;;;;8.50;100.00;94653.28;5036343;28;20029;-93
2023/03/14 01:17:37;;;;;;;0.20;0.10;;;;;;;8.49;100.00;94655.09;5032760;28;20079;-93
2023/03/14 01:20:04;;;;;;;2.53;0.20;;;;;;;8.48;100.00;94652.63;5032770;28;20125;-93
2023/03/14 01:22:39;;;;;;;0.30;0.10;;;;;;;8.40;100.00;94650.13;5021879;28;20110;-93
2023/03/14 01:25:18;;;;;;;0.20;0.17;;;;;;;8.46;100.00;94652.84;5052094;28;20033;-93
2023/03/14 01:27:44;;;;;;;1.07;0.30;;;;;;;8.41;100.00;94641.28;5052820;28;20040;-93
2023/03/14 01:30:13;;;;;;;0.33;0.17;;;;;;;8.47;100.00;94646.59;5035615;28;20029;-92
2023/03/14 01:32:38;;;;;;;1.17;0.30;;;;;;;8.43;100.00;94652.38;5034587;28;20382;-92
2023/03/14 01:35:06;;;;;;;0.50;0.20;;;;;;;8.39;100.00;94651.16;5037570;28;20040;-92
2023/03/14 01:37:33;;;;;;;0.33;0.10;;;;;;;8.31;100.00;94643.34;5039478;28;20495;-92
2023/03/14 01:39:59;;;;;;;0.10;0.10;;;;;;;8.35;100.00;94642.81;5045164;28;20047;-92
2023/03/14 01:42:25;;;;;;;0.20;0.10;;;;;;;8.33;100.00;94630.88;5040426;28;20040;-92
2023/03/14 01:48:05;;;;;;;0.63;0.20;;;;;;;8.31;100.00;94597.00;5078179;28;20076;-93
2023/03/14 01:50:31;;;;;;;0.10;0.10;;;;;;;8.29;100.00;94595.59;5048129;28;20025;-92
2023/03/14 01:52:57;;;;;;;0.37;0.10;;;;;;;8.26;100.00;94581.06;5039227;28;20040;-92
2023/03/14 01:55:25;;;;;;;0.77;0.17;;;;;;;8.35;100.00;94589.59;5039281;28;20386;-92
2023/03/14 01:57:57;;;;;;;0.93;0.10;;;;;;;8.30;100.00;94586.72;5038919;28;20067;-92
2023/03/14 02:00:26;;;;;;;0.20;0.20;;;;;;;8.31;100.00;94578.69;5039257;28;20033;-92
2023/03/14 02:03:00;;;;;;;0.37;0.10;;;;;;;8.22;100.00;94567.53;5039066;28;20040;-93
2023/03/14 02:05:34;;;;;;;0.98;0.10;;;;;;;8.25;100.00;94569.78;5054450;28;20040;-92
2023/03/14 02:08:08;;;;;;;1.80;0.73;;;;;;;8.20;100.00;94564.28;5035780;28;20561;-92
2023/03/14 02:10:46;;;;;;;0.60;0.30;;;;;;;8.23;100.00;94565.72;5034232;28;20495;-92
2023/03/14 02:13:15;;;;;;;0.87;0.30;;;;;;;8.24;100.00;94565.50;5036798;28;20037;-92
2023/03/14 02:15:53;;;;;;;1.17;0.60;;;;;;;8.20;100.00;94548.56;5054157;28;20021;-91
2023/03/14 02:18:45;;;;;;;1.40;0.60;;;;;;;8.22;100.00;94538.72;5054216;28;20057;-92
2023/03/14 02:21:39;;;;;;;1.77;0.57;;;;;;;8.17;100.00;94530.59;5036969;28;20037;-92
2023/03/14 02:24:31;;;;;;;1.00;0.43;;;;;;;8.19;100.00;94535.66;5034598;28;20037;-92
2023/03/14 02:27:23;;;;;;;0.40;0.10;;;;;;;8.15;100.00;94527.38;5026981;28;20091;-92
2023/03/14 02:29:54;;;;;;;0.17;0.17;;;;;;;8.10;100.00;94515.81;5035607;28;20091;-91
2023/03/14 02:32:25;;;;;;;1.20;0.40;;;;;;;8.21;100.00;94525.78;5052955;28;20051;-92
2023/03/14 02:34:56;;;;;;;0.67;0.10;;;;;;;8.14;100.00;94530.97;5053277;28;20041;-91
2023/03/14 02:37:59;;;;;;;2.03;0.20;;;;;;;8.16;100.00;94538.66;5036656;28;20402;-92
2023/03/14 02:40:27;;;;;;;0.50;0.20;;;;;;;8.20;100.00;94535.47;5053001;28;20041;-91
2023/03/14 02:43:05;;;;;;;0.10;0.10;;;;;;;8.11;100.00;94541.81;5036773;28;20044;-91
2023/03/14 02:45:39;;;;;;;0.30;0.10;;;;;;;8.06;100.00;94536.34;5036781;28;20046;-91
2023/03/14 02:48:21;;;;;;;0.10;0.10;;;;;;;8.08;100.00;94525.66;5053914;28;20098;-91
2023/03/14 02:50:50;;;;;;;0.30;0.13;;;;;;;8.10;100.00;94518.44;5036062;28;20501;-92
2023/03/14 02:53:56;;;;;;;1.40;0.23;;;;;;;8.15;100.00;94510.81;5036606;28;20805;-91
2023/03/14 02:56:24;;;;;;;0.33;0.10;;;;;;;8.14;100.00;94496.94;5034029;28;20032;-91
2023/03/14 02:58:50;;;;;;;0.50;0.10;;;;;;;8.24;100.00;94499.25;5036612;28;20094;-91
2023/03/14 03:01:35;;;;;;;0.40;0.10;;;;;;;8.22;100.00;94496.00;5053036;28;20024;-91
2023/03/14 03:04:07;;;;;;;0.10;0.10;;;;;;;8.21;100.00;94499.63;5039781;28;20057;-91
2023/03/14 03:06:33;;;;;;;0.00;0.00;;;;;;;8.20;100.00;94506.66;5049252;28;20041;-91
2023/03/14 03:09:00;;;;;;;0.40;0.10;;;;;;;8.13;100.00;94502.38;5045470;28;20026;-91
2023/03/14 03:11:25;;;;;;;0.60;0.20;;;;;;;8.17;100.00;94499.19;5036348;28;20026;-91
2023/03/14 03:13:55;;;;;;;0.10;0.10;;;;;;;8.21;100.00;94503.03;5032152;28;20036;-91
2023/03/14 03:16:43;;;;;;;0.20;0.10;;;;;;;8.19;100.00;94501.63;5036365;28;20364;-91
2023/03/14 03:19:15;;;;;;;0.77;0.20;;;;;;;8.14;100.00;94485.66;5047705;28;20076;-91
2023/03/14 03:21:41;;;;;;;0.10;0.10;;;;;;;8.13;100.00;94489.28;5044463;28;20120;-91
2023/03/14 03:24:07;;;;;;;0.10;0.00;;;;;;;8.17;100.00;94490.50;5033701;28;20045;-91
2023/03/14 03:26:35;;;;;;;0.20;0.10;;;;;;;8.15;100.00;94495.13;5037204;28;20033;-91
2023/03/14 03:29:09;;;;;;;0.63;0.33;;;;;;;8.15;100.00;94493.34;5037687;28;20033;-91
2023/03/14 03:31:37;;;;;;;0.70;0.20;;;;;;;8.13;100.00;94489.28;5047756;28;20041;-91
2023/03/14 03:34:03;;;;;;;0.00;0.00;;;;;;;8.15;100.00;94489.88;5048326;28;20028;-91
2023/03/14 03:36:29;;;;;;;1.80;0.20;;;;;;;8.08;100.00;94476.75;5065083;28;20049;-91
2023/03/14 03:38:56;;;;;;;0.80;0.20;;;;;;;8.14;100.00;94457.66;5052831;28;20029;-90
2023/03/14 03:41:31;;;;;;;1.17;0.20;;;;;;;8.16;100.00;94454.88;5028516;28;20119;-91
2023/03/14 03:44:16;;;;;;;1.60;0.20;;;;;;;8.20;100.00;94461.34;5034438;28;20057;-91
2023/03/14 03:46:41;;;;;;;0.50;0.10;;;;;;;8.18;100.00;94463.31;5033091;28;20039;-91
2023/03/14 03:49:19;;;;;;;0.10;0.10;;;;;;;8.16;100.00;94458.28;5050957;28;20033;-91
2023/03/14 03:51:45;;;;;;;0.47;0.20;;;;;;;8.15;100.00;94448.81;5052283;28;20056;-91
2023/03/14 03:54:14;;;;;;;0.73;0.10;;;;;;;8.23;100.00;94451.28;5052794;28;20118;-91
2023/03/14 03:56:40;;;;;;;2.77;0.27;;;;;;;8.21;100.00;94453.28;5039311;28;20031;-91
2023/03/14 03:59:06;;;;;;;0.63;0.23;;;;;;;8.15;100.00;94450.59;5036077;28;20036;-92
2023/03/14 04:01:34;;;;;;;0.87;0.30;;;;;;;8.14;100.00;94447.19;5046034;28;20515;-91
2023/03/14 04:04:00;;;;;;;1.83;0.23;;;;;;;8.15;100.00;94447.97;5051545;28;20025;-91
2023/03/14 04:06:26;;;;;;;0.93;0.20;;;;;;;8.07;100.00;94446.31;5035020;28;20047;-91
2023/03/14 04:08:55;;;;;;;0.63;0.27;;;;;;;8.03;100.00;94455.53;5036811;28;20482;-91
2023/03/14 04:11:41;;;;;;;0.40;0.10;;;;;;;7.95;100.00;94448.63;5032294;28;20071;-91
2023/03/14 04:14:26;;;;;;;1.83;0.30;;;;;;;7.90;100.00;94455.41;5051446;28;20047;-91
2023/03/14 04:17:13;;;;;;;0.40;0.20;;;;;;;7.91;100.00;94449.19;5031940;28;20480;-91
2023/03/14 04:19:42;;;;;;;0.40;0.30;;;;;;;7.88;100.00;94453.00;5035397;28;20394;-91
2023/03/14 04:22:09;;;;;;;0.53;0.20;;;;;;;7.79;100.00;94465.38;5039172;28;20043;-91
2023/03/14 04:24:43;;;;;;;0.60;0.30;;;;;;;7.84;100.00;94464.00;5040661;28;20032;-91
2023/03/14 04:27:10;;;;;;;0.83;0.40;;;;;;;7.94;100.00;94467.13;5034206;28;20029;-91
2023/03/14 04:29:36;;;;;;;0.93;0.30;;;;;;;7.92;100.00;94474.38;5037800;28;20039;-91
2023/03/14 04:32:02;;;;;;;0.40;0.20;;;;;;;7.92;100.00;94469.94;5039500;28;20123;-91
2023/03/14 04:34:28;;;;;;;1.33;0.20;;;;;;;7.87;100.00;94466.25;5054238;28;20033;-91
2023/03/14 04:36:55;;;;;;;0.23;0.20;;;;;;;7.91;100.00;94463.06;5034951;28;20021;-91
2023/03/14 04:39:39;;;;;;;1.48;0.43;;;;;;;7.88;100.00;94467.88;5036071;28;20013;-91
2023/03/14 04:42:12;;;;;;;3.58;0.45;;;;;;;7.82;100.00;94468.63;5029543;28;20037;-90
2023/03/14 04:44:38;;;;;;;0.30;0.23;;;;;;;7.83;100.00;94462.41;5034173;28;20514;-91
2023/03/14 04:47:11;;;;;;;1.33;0.40;;;;;;;7.83;100.00;94462.41;5053077;28;20025;-91
2023/03/14 04:49:39;;;;;;;1.17;0.30;;;;;;;7.83;100.00;94451.94;5032786;28;20558;-91
2023/03/14 04:52:13;;;;;;;1.47;0.40;;;;;;;7.79;100.00;94452.28;5039961;28;20048;-90
2023/03/14 04:54:39;;;;;;;2.77;0.40;;;;;;;7.81;100.00;94454.72;5026686;28;20041;-91
2023/03/14 04:57:04;;;;;;;4.33;0.70;;;;;;;7.76;100.00;94442.19;5030736;28;20025;-91
2023/03/14 04:59:40;;;;;;;5.53;0.40;;;;;;;7.77;100.00;94433.34;5032412;28;20376;-90
2023/03/14 05:02:55;;;;;;;1.80;0.40;;;;;;;7.80;100.00;94422.50;5016351;28;20120;-90
2023/03/14 05:05:41;;;;;;;2.90;0.40;;;;;;;7.76;100.00;94418.66;5038792;28;20052;-90
2023/03/14 05:08:33;;;;;;;2.03;0.50;;;;;;;7.77;100.00;94404.56;5047236;28;20056;-90
2023/03/14 05:11:19;;;;;;;3.53;0.63;;;;;;;7.82;100.00;94397.97;5026336;28;20045;-90
2023/03/14 05:14:16;;;;;;;2.23;0.57;;;;;;;7.80;100.00;94398.16;5042542;28;20044;-91
2023/03/14 05:16:54;;;;;;;3.23;0.43;;;;;;;7.72;100.00;94393.84;5035667;28;20028;-91
2023/03/14 05:19:38;;;;;;;3.00;0.70;;;;;;;7.67;100.00;94390.97;5049148;28;20052;-91
2023/03/14 05:22:32;;;;;;;2.77;0.80;;;;;;;7.67;100.00;94380.50;5053919;28;20064;-91
2023/03/14 05:25:05;;;;;;;3.80;0.67;;;;;;;7.69;100.00;94388.19;5079512;28;20025;-91
2023/03/14 05:27:37;;;;;;;4.30;1.00;;;;;;;7.62;100.00;94390.75;5068959;28;20128;-91
2023/03/14 05:30:23;;;;;;;3.97;0.70;;;;;;;7.55;100.00;94384.63;5044249;28;20041;-91
2023/03/14 05:33:09;;;;;;;2.47;0.40;;;;;;;7.55;100.00;94382.03;5026438;28;20041;-90
2023/03/14 05:35:42;;;;;;;5.13;0.90;;;;;;;7.50;100.00;94379.94;5039744;28;20113;-90
2023/03/14 05:38:34;;;;;;;3.50;0.60;;;;;;;7.49;100.00;94378.34;5025598;28;20037;-91
2023/03/14 05:41:18;;;;;;;2.33;0.43;;;;;;;7.43;100.00;94375.66;5054112;28;20071;-91
2023/03/14 05:44:02;;;;;;;2.70;0.50;;;;;;;7.50;100.00;94376.53;5039500;28;20127;-90
2023/03/14 05:46:39;;;;;;;4.17;0.60;;;;;;;7.50;100.00;94366.06;5036798;28;20557;-91
2023/03/14 05:49:20;;;;;;;3.97;0.70;;;;;;;7.44;100.00;94353.72;5045768;28;20377;-91
2023/03/14 05:52:43;;;;;;;4.00;0.50;;;;;;;7.41;100.00;94349.69;5042394;28;20108;-91
2023/03/14 05:55:39;;;;;;;3.33;0.50;;;;;;;7.39;100.00;94354.28;5046147;28;20040;-90
2023/03/14 05:58:29;;;;;;;2.00;0.37;;;;;;;7.36;100.00;94336.34;5041637;28;20071;-91
2023/03/14 06:01:17;;;;;;;3.23;0.50;;;;;;;7.34;100.00;94354.03;5040101;28;20108;-91
2023/03/14 06:04:22;;;;;;;4.13;0.60;;;;;;;7.39;100.00;94343.81;5043614;28;20037;-91
2023/03/14 06:07:07;;;;;;;3.23;0.90;;;;;;;7.45;100.00;94347.50;5064310;28;20020;-90
2023/03/14 06:09:44;;;;;;;1.83;0.53;;;;;;;7.38;100.00;94344.00;5029815;28;20112;-91
2023/03/14 06:12:17;;;;;;;5.43;1.20;;;;;;;7.43;100.00;94333.81;5047485;28;20513;-90
2023/03/14 06:14:45;;;;;;;7.17;2.40;;;;;;;7.47;100.00;94335.84;5040555;28;20043;-91
2023/03/14 06:17:19;;;;;;;4.13;1.37;;;;;;;7.54;100.00;94341.97;5036641;28;20111;-91
2023/03/14 06:19:51;;;;;;;4.40;1.27;;;;;;;7.52;100.00;94333.50;5054152;28;20035;-91
2023/03/14 06:22:17;;;;;;;5.67;0.90;;;;;;;7.57;100.00;94325.06;5040673;28;20032;-91
2023/03/14 06:24:43;;;;;;;4.90;0.80;;;;;;;7.70;100.00;94319.16;5045188;28;20033;-91
2023/03/14 06:27:12;;;;;;;3.20;0.83;;;;;;;7.77;100.00;94315.59;5057117;28;20020;-91
2023/03/14 06:29:38;;;;;;;2.63;0.70;;;;;;;7.78;100.00;94322.47;5076245;28;20066;-91
2023/03/14 06:32:05;;;;;;;3.50;0.60;;;;;;;7.94;100.00;94325.78;5057906;28;20068;-92
2023/03/14 06:34:31;;;;;;;2.20;0.73;;;;;;;7.85;100.00;94322.53;5061091;28;20506;-92
2023/03/14 06:37:23;;;;;;;5.00;1.20;;;;;;;7.88;100.00;94335.22;5042413;28;20038;-91
2023/03/14 06:39:48;;;;;;;2.37;0.67;;;;;;;7.79;100.00;94333.75;5037392;28;20118;-91
2023/03/14 06:42:34;;;;;;;2.63;0.60;;;;;;;7.78;100.00;94332.94;5044239;28;20055;-91
2023/03/14 06:45:00;;;;;;;3.53;0.87;;;;;;;7.82;100.00;94338.59;5052967;28;20036;-91
2023/03/14 06:47:32;;;;;;;2.20;0.50;;;;;;;7.80;100.00;94354.47;5038063;28;20033;-91
2023/03/14 06:49:58;;;;;;;4.47;0.60;;;;;;;7.80;100.00;94351.03;5049833;28;20034;-90
2023/03/14 06:52:24;;;;;;;3.50;0.60;;;;;;;7.95;100.00;94354.41;5036072;28;20026;-91
2023/03/14 06:55:09;;;;;;;2.83;0.80;;;;;;;7.91;100.00;94341.88;5030412;28;20441;-91
2023/03/14 06:57:36;;;;;;;2.23;0.80;;;;;;;7.98;100.00;94346.19;5052242;28;20029;-91
2023/03/14 07:00:04;;;;;;;1.77;0.80;;;;;;;8.02;100.00;94338.75;5049623;28;20056;-92
2023/03/14 07:02:30;;;;;;;6.10;1.30;;;;;;;8.07;100.00;94338.19;5051990;28;20384;-91
2023/03/14 07:05:00;;;;;;;2.73;0.70;;;;;;;8.12;100.00;94339.22;5052329;28;20553;-91
2023/03/14 07:07:27;;;;;;;2.53;0.63;;;;;;;8.14;100.00;94337.22;5053172;28;20029;-92
2023/03/14 07:09:56;;;;;;;4.63;0.70;;;;;;;8.25;100.00;94328.84;5035799;28;20029;-91
2023/03/14 07:12:21;;;;;;;5.67;1.00;;;;;;;8.26;100.00;94340.13;5053196;28;20033;-91
2023/03/14 07:14:48;;;;;;;8.03;1.27;;;;;;;8.32;100.00;94339.38;5074225;28;20036;-92
2023/03/14 07:17:18;;;;;;;4.23;1.00;;;;;;;8.58;100.00;94353.66;5045169;28;20024;-92
2023/03/14 07:19:44;;;;;;;4.10;1.40;;;;;;;8.70;100.00;94349.50;5028068;28;20512;-92
2023/03/14 07:22:10;;;;;;;4.13;0.93;;;;;;;8.97;100.00;94353.03;5052467;28;20128;-91
2023/03/14 07:24:43;;;;;;;4.72;0.70;;;;;;;9.19;100.00;94349.31;5037044;28;20036;-92
2023/03/14 07:27:09;;;;;;;3.10;0.80;;;;;;;9.32;100.00;94351.16;5036652;28;20491;-92
2023/03/14 07:29:35;;;;;;;4.50;0.93;;;;;;;9.61;100.00;94344.75;5035603;28;20079;-91
2023/03/14 07:32:03;;;;;;;1.93;0.70;;;;;;;9.58;100.00;94345.16;5035217;28;20029;-92
2023/03/14 07:34:33;;;;;;;1.00;0.30;;;;;;;9.97;100.00;94350.66;5035657;28;20029;-91
2023/03/14 07:37:01;;;;;;;4.20;0.83;;;;;;;10.11;100.00;94339.13;5052145;28;20025;-91
2023/03/14 07:39:27;;;;;;;4.53;0.83;;;;;;;10.06;100.00;94350.25;5053515;28;20049;-91
2023/03/14 07:46:02;;;;;;;2.63;0.73;;;;;;;10.24;100.00;94348.84;5063432;28;20095;-94
2023/03/14 07:48:28;;;;;;;4.20;1.00;;;;;;;10.14;100.00;94352.69;5040917;28;20043;-95
2023/03/14 07:50:55;;;;;;;3.77;1.10;;;;;;;9.99;100.00;94354.69;5037660;28;20067;-94
2023/03/14 07:53:47;;;;;;;4.90;1.10;;;;;;;10.64;100.00;94360.13;5037882;28;20386;-94
2023/03/14 07:56:13;;;;;;;1.43;0.60;;;;;;;11.34;100.00;94347.16;5037676;28;20033;-93
2023/03/14 07:58:39;;;;;;;3.57;0.90;;;;;;;11.91;100.00;94336.72;5037421;28;20143;-93
2023/03/14 08:01:05;;;;;;;5.60;1.13;;;;;;;12.07;100.00;94340.63;5037889;28;20064;-94
2023/03/14 08:04:05;;;;;;;4.87;1.27;;;;;;;12.80;100.00;94330.22;5037622;28;20041;-94
2023/03/14 08:06:31;;;;;;;4.13;1.00;;;;;;;12.47;100.00;94333.19;5037294;28;20029;-94
2023/03/14 08:08:56;;;;;;;3.03;0.87;;;;;;;12.33;100.00;94327.25;5053940;28;20094;-95
2023/03/14 08:11:22;;;;;;;4.20;0.80;;;;;;;11.62;100.00;94336.25;5037402;28;20029;-94
2023/03/14 08:13:49;;;;;;;3.30;1.10;;;;;;;11.81;100.00;94339.78;5037736;28;20048;-94
2023/03/14 08:20:06;;;;;;;1.77;0.40;;;;;;;11.46;100.00;94336.75;5055115;28;20127;-94
2023/03/14 08:22:32;;;;;;;3.13;1.00;;;;;;;12.23;100.00;94334.84;5038777;28;20494;-94
2023/03/14 08:24:58;;;;;;;3.17;0.60;;;;;;;12.89;100.00;94339.47;5037489;28;20064;-94
2023/03/14 08:27:23;;;;;;;2.43;0.47;;;;;;;12.44;100.00;94334.47;5037675;28;20037;-94
2023/03/14 08:29:49;;;;;;;4.37;0.60;;;;;;;12.33;100.00;94327.25;5036970;28;20094;-94
2023/03/14 08:32:59;;;;;;;3.27;0.60;;;;;;;11.91;100.00;94334.88;5037164;28;20087;-93
2023/03/14 08:35:25;;;;;;;2.20;0.50;;;;;;;11.70;100.00;94333.38;5037459;28;20033;-94
2023/03/14 08:37:52;;;;;;;4.50;1.03;;;;;;;11.33;100.00;94337.63;5037468;28;20025;-95
2023/03/14 08:44:04;;;;;;;3.03;0.40;;;;;;;11.54;100.00;94334.69;5054633;28;20078;-95
2023/03/14 08:46:30;;;;;;;2.03;0.40;;;;;;;12.28;100.00;94329.72;5036447;28;20033;-94
2023/03/14 08:52:43;;;;;;;2.83;0.50;;;;;;;11.87;100.00;94323.19;5054401;28;20063;-94
2023/03/14 08:58:56;;;;;;;2.10;0.33;;;;;;;11.86;100.00;94305.75;5054535;28;20079;-95
2023/03/14 09:01:24;;;;;;;1.80;0.50;;;;;;;11.88;100.00;94311.63;5060987;28;20032;-95
2023/03/14 09:03:50;;;;;;;2.60;0.90;;;;;;;11.74;100.00;94308.25;5061584;28;20028;-94
2023/03/14 09:06:19;;;;;;;2.87;0.57;;;;;;;11.55;100.00;94319.69;5040189;28;20041;-95
2023/03/14 09:08:45;;;;;;;0.97;0.30;;;;;;;12.08;100.00;94322.00;5036643;28;20084;-95
2023/03/14 09:11:28;;;;;;;3.20;0.50;;;;;;;11.82;100.00;94322.16;5036839;28;20506;-95
2023/03/14 09:13:54;;;;;;;4.22;0.85;;;;;;;11.99;100.00;94304.84;5037522;28;20107;-95
2023/03/14 09:16:19;;;;;;;1.43;0.43;;;;;;;12.05;100.00;94308.44;5036767;28;20048;-95
2023/03/14 09:22:33;;;;;;;1.57;0.53;;;;;;;12.15;100.00;94306.13;5054471;28;20040;-94
2023/03/14 09:24:58;;;;;;;3.90;0.70;;;;;;;11.96;100.00;94306.06;5036721;28;20085;-94
2023/03/14 09:31:12;;;;;;;1.03;0.30;;;;;;;13.26;100.00;94307.00;5054255;28;20513;-94
2023/03/14 09:33:38;;;;;;;1.93;0.50;;;;;;;13.62;100.00;94303.47;5036377;28;20119;-95
2023/03/14 09:39:51;;;;;;;1.57;0.40;;;;;;;13.03;100.00;94299.75;5053776;28;20040;-95
2023/03/14 09:42:51;;;;;;;2.47;0.40;;;;;;;14.09;100.00;94298.28;5041454;28;20029;-95
2023/03/14 09:45:25;;;;;;;1.97;0.40;;;;;;;14.76;100.00;94301.41;5032829;28;20124;-94
2023/03/14 09:47:51;;;;;;;0.67;0.30;;;;;;;15.26;100.00;94303.50;5033587;28;20033;-95
2023/03/14 09:54:05;;;;;;;1.40;0.30;;;;;;;14.38;100.00;94307.13;5057116;28;20040;-95
2023/03/14 09:56:33;;;;;;;0.83;0.30;;;;;;;14.24;100.00;94301.28;5040221;28;20032;-95
2023/03/14 10:02:54;;;;;;;0.80;0.33;;;;;;;14.39;100.00;94314.06;5057517;28;20055;-95
2023/03/14 10:05:23;;;;;;;4.57;0.50;;;;;;;13.84;100.00;94315.13;5039761;28;20067;-96
2023/03/14 10:07:50;;;;;;;1.97;0.40;;;;;;;13.13;100.00;94305.31;5040396;28;20033;-95
2023/03/14 10:10:19;;;;;;;1.03;0.30;;;;;;;13.29;100.00;94312.66;5040027;28;20088;-95
2023/03/14 10:12:53;;;;;;;0.53;0.30;;;;;;;12.84;100.00;94314.75;5040428;28;20033;-95
2023/03/14 10:15:29;;;;;;;2.97;0.40;;;;;;;12.68;100.00;94313.53;5041440;28;20059;-95
2023/03/14 10:17:57;;;;;;;1.30;0.40;;;;;;;13.33;100.00;94316.44;5040912;28;20039;-96
2023/03/14 10:20:44;;;;;;;1.23;0.30;;;;;;;13.71;100.00;94312.66;5041265;28;20029;-86
2023/03/14 10:23:12;;;;;;;0.47;0.30;;;;;;;13.80;100.00;94311.31;5033743;28;20043;-92
2023/03/14 10:25:57;;;;;;;0.73;0.30;;;;;;;14.35;100.00;94303.13;5042315;28;20058;-91
2023/03/14 10:28:29;;;;;;;1.03;0.30;;;;;;;14.37;100.00;94293.13;5029231;28;20033;-92
2023/03/14 10:30:56;;;;;;;0.63;0.27;;;;;;;14.36;100.00;94306.59;5038369;28;20111;-92
2023/03/14 10:33:23;;;;;;;1.77;0.40;;;;;;;14.54;100.00;94314.41;5044647;28;20029;-91
2023/03/14 10:36:03;;;;;;;0.40;0.30;;;;;;;14.80;100.00;94302.56;5030194;28;20139;-92
2023/03/14 10:38:35;;;;;;;0.97;0.30;;;;;;;14.54;100.00;94303.03;5027672;28;20037;-92
2023/03/14 10:41:03;;;;;;;1.20;0.50;;;;;;;14.08;100.00;94320.44;5035803;28;20483;-92
2023/03/14 10:43:35;;;;;;;1.70;0.37;;;;;;;13.39;100.00;94304.19;5035877;28;20064;-91
2023/03/14 10:46:09;;;;;;;6.50;0.40;;;;;;;13.36;100.00;94313.34;5042912;28;20039;-91
2023/03/14 10:48:54;;;;;;;0.63;0.30;;;;;;;13.17;100.00;94317.81;5075483;28;20040;-91
2023/03/14 10:51:27;;;;;;;2.10;0.30;;;;;;;12.79;100.00;94312.00;5056998;28;20025;-92
2023/03/14 10:53:57;;;;;;;1.57;0.40;;;;;;;13.48;100.00;94325.78;5040943;28;20029;-92
2023/03/14 10:56:25;;;;;;;2.00;0.30;;;;;;;14.34;100.00;94317.38;5054149;28;20044;-91
2023/03/14 10:58:55;;;;;;;0.50;0.20;;;;;;;14.88;100.00;94321.75;5037653;28;20461;-90
2023/03/14 11:01:39;;;;;;;0.93;0.20;;;;;;;14.97;100.00;94317.72;5035544;28;20875;-90
2023/03/14 11:04:31;;;;;;;2.00;0.43;;;;;;;15.02;100.00;94313.34;5045951;28;20044;-90
2023/03/14 11:07:31;;;;;;;1.17;0.30;;;;;;;15.12;100.00;94318.00;5031780;28;20045;-90
2023/03/14 11:09:56;;;;;;;0.50;0.20;;;;;;;15.87;100.00;94318.94;5049908;28;20114;-90
2023/03/14 11:13:15;;;;;;;0.28;0.10;;;;;;;15.33;100.00;94317.38;5032567;28;20671;-90
2023/03/14 11:15:45;;;;;;;0.70;0.15;;;;;;;14.19;100.00;94309.09;4975101;28;20040;-89
2023/03/14 11:18:47;;;;;;;0.57;0.20;;;;;;;15.51;100.00;94305.00;5041934;28;20087;-89
2023/03/14 11:21:35;;;;;;;0.75;0.10;;;;;;;15.25;100.00;94307.16;5040010;28;20037;-90
2023/03/14 11:24:13;;;;;;;2.13;0.20;;;;;;;14.53;100.00;94314.66;5040928;28;20041;-89
2023/03/14 11:26:49;;;;;;;0.77;0.40;;;;;;;14.36;100.00;94310.03;5050743;28;20041;-90
2023/03/14 11:29:28;;;;;;;0.80;0.30;;;;;;;13.64;100.00;94311.97;5050707;28;20036;-90
2023/03/14 11:31:58;;;;;;;2.27;0.60;;;;;;;13.93;100.00;94322.72;5035072;28;20131;-89
2023/03/14 11:34:30;;;;;;;0.17;0.17;;;;;;;12.98;100.00;94324.97;5034666;28;20116;-89
2023/03/14 11:37:06;;;;;;;1.75;0.30;;;;;;;13.23;100.00;94326.69;5045396;28;20032;-90
2023/03/14 11:39:41;;;;;;;2.37;0.30;;;;;;;12.91;100.00;94337.44;5041177;28;20033;-90
2023/03/14 11:42:17;;;;;;;1.47;0.50;;;;;;;13.09;100.00;94319.97;5032518;28;20030;-90
2023/03/14 11:44:49;;;;;;;1.00;0.40;;;;;;;12.71;100.00;94327.09;5040338;28;20033;-90
2023/03/14 11:47:26;;;;;;;0.80;0.47;;;;;;;12.55;100.00;94334.75;5033712;28;20045;-90
2023/03/14 11:50:01;;;;;;;0.53;0.37;;;;;;;11.94;100.00;94338.94;5050145;28;20439;-90
2023/03/14 11:52:34;;;;;;;3.63;0.60;;;;;;;11.57;100.00;94339.53;5049956;28;20052;-90
2023/03/14 11:55:10;;;;;;;1.75;0.80;;;;;;;11.45;100.00;94366.75;5046688;28;20124;-90
2023/03/14 11:57:37;;;;;;;1.47;0.50;;;;;;;11.53;100.00;94375.19;5041070;28;20037;-90
2023/03/14 12:00:17;;;;;;;4.40;1.13;;;;;;;10.95;100.00;94390.19;5034369;28;20058;-90
2023/03/14 12:03:21;;;;;;;2.50;1.00;;;;;;;10.87;100.00;94387.81;5030877;28;20062;-89
2023/03/14 12:06:24;;;;;;;2.70;1.00;;;;;;;10.50;100.00;94400.59;5046494;28;20028;-91
2023/03/14 12:09:03;;;;;;;2.27;1.07;;;;;;;10.42;100.00;94409.47;5036440;28;20514;-92
2023/03/14 12:11:43;;;;;;;3.27;1.27;;;;;;;10.36;100.00;94408.50;5047043;28;20119;-91
2023/03/14 12:14:45;;;;;;;2.47;0.90;;;;;;;10.23;100.00;94433.88;5067116;28;20118;-91
2023/03/14 12:17:24;;;;;;;3.30;1.07;;;;;;;10.26;100.00;94428.28;5041433;28;20048;-91
2023/03/14 12:20:15;;;;;;;5.07;1.30;;;;;;;10.10;100.00;94424.22;5044264;28;20082;-91
2023/03/14 12:22:47;;;;;;;5.97;1.23;;;;;;;10.05;100.00;94431.88;5044298;28;20056;-90
2023/03/14 12:25:15;;;;;;;2.90;0.87;;;;;;;9.76;100.00;94451.38;5031367;28;20859;-90
2023/03/14 12:27:43;;;;;;;2.33;0.97;;;;;;;9.81;100.00;94444.53;5034056;28;20044;-90
2023/03/14 12:30:39;;;;;;;1.67;0.50;;;;;;;9.44;100.00;94443.22;5051824;28;20045;-90
2023/03/14 12:33:17;;;;;;;1.40;0.60;;;;;;;9.45;100.00;94443.00;5038467;28;20070;-91
2023/03/14 12:35:49;;;;;;;2.50;0.80;;;;;;;9.62;100.00;94447.91;5031965;28;20030;-91
2023/03/14 12:38:16;;;;;;;2.53;0.90;;;;;;;9.51;100.00;94446.66;5059076;28;20387;-91
2023/03/14 12:41:21;;;;;;;1.70;0.60;;;;;;;9.76;100.00;94448.75;5059807;28;20031;-90
2023/03/14 12:43:47;;;;;;;1.00;0.50;;;;;;;9.56;100.00;94453.97;5033189;28;20045;-91
2023/03/14 12:46:22;;;;;;;1.33;0.40;;;;;;;9.53;100.00;94465.66;5031317;28;20132;-92
2023/03/14 12:48:54;;;;;;;1.80;0.60;;;;;;;9.56;100.00;94461.84;5033454;28;20044;-91